sensor_id;sensor_type;location;lat;lon;timestamp;temperature;humidity
48728;DHT22;34527;45.618;5.130;2023-05-07T00:01:39;17.60;99.90
48728;DHT22;34527;45.618;5.130;2023-05-07T00:04:05;17.60;99.90
48728;DHT22;34527;45.618;5.130;2023-05-07T00:06:31;17.50;99.90
48728;DHT22;34527;45.618;5.130;2023-05-07T00:08:58;17.50;99.90
48728;DHT22;34527;45.618;5.130;2023-05-07T00:11:23;17.50;99.90
48728;DHT22;34527;45.618;5.130;2023-05-07T00:13:49;17.40;99.90
48728;DHT22;34527;45.618;5.130;2023-05-07T00:16:14;17.40;99.90
48728;DHT22;34527;45.618;5.130;2023-05-07T00:18:40;17.40;99.90
48728;DHT22;34527;45.618;5.130;2023-05-07T00:21:06;17.40;99.90
48728;DHT22;34527;45.618;5.130;2023-05-07T00:23:31;17.40;99.90
48728;DHT22;34527;45.618;5.130;2023-05-07T00:25:57;17.40;99.90
48728;DHT22;34527;45.618;5.130;2023-05-07T00:28:22;17.30;99.90
48728;DHT22;34527;45.618;5.130;2023-05-07T00:30:48;17.30;99.90
48728;DHT22;34527;45.618;5.130;2023-05-07T00:33:13;17.30;99.90
48728;DHT22;34527;45.618;5.130;2023-05-07T00:35:39;17.30;99.90
48728;DHT22;34527;45.618;5.130;2023-05-07T00:38:05;17.30;99.90
48728;DHT22;34527;45.618;5.130;2023-05-07T00:40:30;17.20;99.90
48728;DHT22;34527;45.618;5.130;2023-05-07T00:42:56;17.20;99.90
48728;DHT22;34527;45.618;5.130;2023-05-07T00:45:26;17.20;99.90
48728;DHT22;34527;45.618;5.130;2023-05-07T00:47:55;17.10;99.90
48728;DHT22;34527;45.618;5.130;2023-05-07T00:50:20;17.10;99.90
48728;DHT22;34527;45.618;5.130;2023-05-07T00:52:46;17.00;99.90
48728;DHT22;34527;45.618;5.130;2023-05-07T00:55:12;16.90;99.90
48728;DHT22;34527;45.618;5.130;2023-05-07T00:57:40;16.90;99.90
48728;DHT22;34527;45.618;5.130;2023-05-07T01:00:07;16.90;99.90
48728;DHT22;34527;45.618;5.130;2023-05-07T01:02:35;16.90;99.90
48728;DHT22;34527;45.618;5.130;2023-05-07T01:05:01;16.90;99.90
48728;DHT22;34527;45.618;5.130;2023-05-07T01:07:29;16.90;99.90
48728;DHT22;34527;45.618;5.130;2023-05-07T01:09:55;16.80;99.90
48728;DHT22;34527;45.618;5.130;2023-05-07T01:12:21;16.70;99.90
48728;DHT22;34527;45.618;5.130;2023-05-07T01:14:47;16.80;99.90
48728;DHT22;34527;45.618;5.130;2023-05-07T01:17:15;16.80;99.90
48728;DHT22;34527;45.618;5.130;2023-05-07T01:19:41;16.80;99.90
48728;DHT22;34527;45.618;5.130;2023-05-07T01:22:10;16.80;99.90
48728;DHT22;34527;45.618;5.130;2023-05-07T01:24:37;16.70;99.90
48728;DHT22;34527;45.618;5.130;2023-05-07T01:27:04;16.80;99.90
48728;DHT22;34527;45.618;5.130;2023-05-07T01:29:29;16.80;99.90
48728;DHT22;34527;45.618;5.130;2023-05-07T01:31:59;16.80;99.90
48728;DHT22;34527;45.618;5.130;2023-05-07T01:34:28;16.70;99.90
48728;DHT22;34527;45.618;5.130;2023-05-07T01:36:56;16.70;99.90
48728;DHT22;34527;45.618;5.130;2023-05-07T01:39:27;16.70;99.90
48728;DHT22;34527;45.618;5.130;2023-05-07T01:41:55;16.70;99.90
48728;DHT22;34527;45.618;5.130;2023-05-07T01:44:22;16.70;99.90
48728;DHT22;34527;45.618;5.130;2023-05-07T01:46:49;16.80;99.90
48728;DHT22;34527;45.618;5.130;2023-05-07T01:49:15;16.80;99.90
48728;DHT22;34527;45.618;5.130;2023-05-07T01:51:41;16.80;99.90
48728;DHT22;34527;45.618;5.130;2023-05-07T01:54:07;16.80;99.90
48728;DHT22;34527;45.618;5.130;2023-05-07T01:56:33;16.80;99.90
48728;DHT22;34527;45.618;5.130;2023-05-07T01:58:59;16.80;99.90
48728;DHT22;34527;45.618;5.130;2023-05-07T02:01:25;16.90;99.90
48728;DHT22;34527;45.618;5.130;2023-05-07T02:03:50;16.80;99.90
48728;DHT22;34527;45.618;5.130;2023-05-07T02:06:16;16.80;99.90
48728;DHT22;34527;45.618;5.130;2023-05-07T02:08:41;16.80;99.90
48728;DHT22;34527;45.618;5.130;2023-05-07T02:11:07;16.80;99.90
48728;DHT22;34527;45.618;5.130;2023-05-07T02:13:34;16.80;99.90
48728;DHT22;34527;45.618;5.130;2023-05-07T02:16:00;16.80;99.90
48728;DHT22;34527;45.618;5.130;2023-05-07T02:18:26;16.80;99.90
48728;DHT22;34527;45.618;5.130;2023-05-07T02:20:51;16.70;99.90
48728;DHT22;34527;45.618;5.130;2023-05-07T02:23:17;16.70;99.90
48728;DHT22;34527;45.618;5.130;2023-05-07T02:25:42;16.70;99.90
48728;DHT22;34527;45.618;5.130;2023-05-07T02:28:08;16.60;99.90
48728;DHT22;34527;45.618;5.130;2023-05-07T02:30:33;16.60;99.90
48728;DHT22;34527;45.618;5.130;2023-05-07T02:32:59;16.50;99.90
48728;DHT22;34527;45.618;5.130;2023-05-07T02:35:25;16.40;99.90
48728;DHT22;34527;45.618;5.130;2023-05-07T02:37:51;16.30;99.90
48728;DHT22;34527;45.618;5.130;2023-05-07T02:40:17;16.20;99.90
48728;DHT22;34527;45.618;5.130;2023-05-07T02:42:42;16.10;99.90
48728;DHT22;34527;45.618;5.130;2023-05-07T02:45:08;16.00;99.90
48728;DHT22;34527;45.618;5.130;2023-05-07T02:47:34;15.90;99.90
48728;DHT22;34527;45.618;5.130;2023-05-07T02:50:00;15.80;99.90
48728;DHT22;34527;45.618;5.130;2023-05-07T02:52:25;15.60;99.90
48728;DHT22;34527;45.618;5.130;2023-05-07T02:54:51;15.60;99.90
48728;DHT22;34527;45.618;5.130;2023-05-07T02:57:17;15.60;99.90
48728;DHT22;34527;45.618;5.130;2023-05-07T02:59:43;15.50;99.90
48728;DHT22;34527;45.618;5.130;2023-05-07T03:02:08;15.30;99.90
48728;DHT22;34527;45.618;5.130;2023-05-07T03:04:34;15.20;99.90
48728;DHT22;34527;45.618;5.130;2023-05-07T03:07:00;15.30;99.90
48728;DHT22;34527;45.618;5.130;2023-05-07T03:09:25;15.30;99.90
48728;DHT22;34527;45.618;5.130;2023-05-07T03:11:51;15.20;99.90
48728;DHT22;34527;45.618;5.130;2023-05-07T03:14:17;15.20;99.90
48728;DHT22;34527;45.618;5.130;2023-05-07T03:16:42;15.20;99.90
48728;DHT22;34527;45.618;5.130;2023-05-07T03:19:08;15.20;99.90
48728;DHT22;34527;45.618;5.130;2023-05-07T03:21:33;15.20;99.90
48728;DHT22;34527;45.618;5.130;2023-05-07T03:24:00;15.20;99.90
48728;DHT22;34527;45.618;5.130;2023-05-07T03:26:26;15.10;99.90
48728;DHT22;34527;45.618;5.130;2023-05-07T03:28:51;15.00;99.90
48728;DHT22;34527;45.618;5.130;2023-05-07T03:31:17;15.00;99.90
48728;DHT22;34527;45.618;5.130;2023-05-07T03:33:54;15.10;99.90
48728;DHT22;34527;45.618;5.130;2023-05-07T03:36:20;15.10;99.90
48728;DHT22;34527;45.618;5.130;2023-05-07T03:38:47;15.10;99.90
48728;DHT22;34527;45.618;5.130;2023-05-07T03:41:13;15.20;99.90
48728;DHT22;34527;45.618;5.130;2023-05-07T03:43:39;15.20;99.90
48728;DHT22;34527;45.618;5.130;2023-05-07T03:46:04;15.20;99.90
48728;DHT22;34527;45.618;5.130;2023-05-07T03:48:30;15.20;99.90
48728;DHT22;34527;45.618;5.130;2023-05-07T03:50:56;15.30;99.90
48728;DHT22;34527;45.618;5.130;2023-05-07T03:53:22;15.30;99.90
48728;DHT22;34527;45.618;5.130;2023-05-07T03:55:48;15.30;99.90
48728;DHT22;34527;45.618;5.130;2023-05-07T03:58:13;15.40;99.90
48728;DHT22;34527;45.618;5.130;2023-05-07T04:00:39;15.30;99.90
48728;DHT22;34527;45.618;5.130;2023-05-07T04:03:06;15.30;99.90
48728;DHT22;34527;45.618;5.130;2023-05-07T04:05:31;15.40;99.90
48728;DHT22;34527;45.618;5.130;2023-05-07T04:08:01;15.50;99.90
48728;DHT22;34527;45.618;5.130;2023-05-07T04:10:29;15.60;99.90
48728;DHT22;34527;45.618;5.130;2023-05-07T04:12:55;15.80;99.90
48728;DHT22;34527;45.618;5.130;2023-05-07T04:15:22;16.00;99.90
48728;DHT22;34527;45.618;5.130;2023-05-07T04:17:48;16.00;99.90
48728;DHT22;34527;45.618;5.130;2023-05-07T04:20:17;16.00;99.90
48728;DHT22;34527;45.618;5.130;2023-05-07T04:22:43;15.90;99.90
48728;DHT22;34527;45.618;5.130;2023-05-07T04:25:09;15.80;99.90
48728;DHT22;34527;45.618;5.130;2023-05-07T04:27:35;15.70;99.90
48728;DHT22;34527;45.618;5.130;2023-05-07T04:30:02;15.60;99.90
48728;DHT22;34527;45.618;5.130;2023-05-07T04:32:28;15.60;99.90
48728;DHT22;34527;45.618;5.130;2023-05-07T04:34:55;15.60;99.90
48728;DHT22;34527;45.618;5.130;2023-05-07T04:37:21;15.70;99.90
48728;DHT22;34527;45.618;5.130;2023-05-07T04:39:46;15.70;99.90
48728;DHT22;34527;45.618;5.130;2023-05-07T04:42:16;15.70;99.90
48728;DHT22;34527;45.618;5.130;2023-05-07T04:44:41;15.70;99.90
48728;DHT22;34527;45.618;5.130;2023-05-07T04:47:07;15.70;99.90
48728;DHT22;34527;45.618;5.130;2023-05-07T04:49:32;15.70;99.90
48728;DHT22;34527;45.618;5.130;2023-05-07T04:51:58;15.70;99.90
48728;DHT22;34527;45.618;5.130;2023-05-07T04:54:23;15.80;99.90
48728;DHT22;34527;45.618;5.130;2023-05-07T04:56:50;15.80;99.90
48728;DHT22;34527;45.618;5.130;2023-05-07T04:59:16;15.70;99.90
48728;DHT22;34527;45.618;5.130;2023-05-07T05:01:41;15.80;99.90
48728;DHT22;34527;45.618;5.130;2023-05-07T05:04:07;15.80;99.90
48728;DHT22;34527;45.618;5.130;2023-05-07T05:06:32;15.80;99.90
48728;DHT22;34527;45.618;5.130;2023-05-07T05:08:58;15.80;99.90
48728;DHT22;34527;45.618;5.130;2023-05-07T05:11:24;15.80;99.90
48728;DHT22;34527;45.618;5.130;2023-05-07T05:13:49;15.80;99.90
48728;DHT22;34527;45.618;5.130;2023-05-07T05:16:15;15.80;99.90
48728;DHT22;34527;45.618;5.130;2023-05-07T05:18:41;15.80;99.90
48728;DHT22;34527;45.618;5.130;2023-05-07T05:21:06;15.80;99.90
48728;DHT22;34527;45.618;5.130;2023-05-07T05:23:32;15.80;99.90
48728;DHT22;34527;45.618;5.130;2023-05-07T05:25:58;15.80;99.90
48728;DHT22;34527;45.618;5.130;2023-05-07T05:28:24;15.80;99.90
48728;DHT22;34527;45.618;5.130;2023-05-07T05:30:50;15.70;99.90
48728;DHT22;34527;45.618;5.130;2023-05-07T05:33:15;15.60;99.90
48728;DHT22;34527;45.618;5.130;2023-05-07T05:35:42;15.80;99.90
48728;DHT22;34527;45.618;5.130;2023-05-07T05:38:08;15.80;99.90
48728;DHT22;34527;45.618;5.130;2023-05-07T05:40:33;15.90;99.90
48728;DHT22;34527;45.618;5.130;2023-05-07T05:42:59;15.90;99.90
48728;DHT22;34527;45.618;5.130;2023-05-07T05:45:25;15.90;99.90
48728;DHT22;34527;45.618;5.130;2023-05-07T05:47:51;15.90;99.90
48728;DHT22;34527;45.618;5.130;2023-05-07T05:50:17;16.00;99.90
48728;DHT22;34527;45.618;5.130;2023-05-07T05:52:42;15.90;99.90
48728;DHT22;34527;45.618;5.130;2023-05-07T05:55:08;16.00;99.90
48728;DHT22;34527;45.618;5.130;2023-05-07T05:57:34;16.00;99.90
48728;DHT22;34527;45.618;5.130;2023-05-07T06:00:01;16.00;99.90
48728;DHT22;34527;45.618;5.130;2023-05-07T06:02:27;16.10;99.90
48728;DHT22;34527;45.618;5.130;2023-05-07T06:04:53;16.10;99.90
48728;DHT22;34527;45.618;5.130;2023-05-07T06:07:19;16.20;99.90
48728;DHT22;34527;45.618;5.130;2023-05-07T06:09:44;16.30;99.90
48728;DHT22;34527;45.618;5.130;2023-05-07T06:12:11;16.20;99.90
48728;DHT22;34527;45.618;5.130;2023-05-07T06:14:36;16.30;99.90
48728;DHT22;34527;45.618;5.130;2023-05-07T06:17:02;16.40;99.90
48728;DHT22;34527;45.618;5.130;2023-05-07T06:19:28;16.50;99.90
48728;DHT22;34527;45.618;5.130;2023-05-07T06:21:53;16.70;99.90
48728;DHT22;34527;45.618;5.130;2023-05-07T06:24:19;16.90;99.90
48728;DHT22;34527;45.618;5.130;2023-05-07T06:26:45;17.10;99.90
48728;DHT22;34527;45.618;5.130;2023-05-07T06:29:10;17.20;99.90
48728;DHT22;34527;45.618;5.130;2023-05-07T06:31:36;17.30;99.90
48728;DHT22;34527;45.618;5.130;2023-05-07T06:34:02;17.30;99.90
48728;DHT22;34527;45.618;5.130;2023-05-07T06:36:28;17.20;99.90
48728;DHT22;34527;45.618;5.130;2023-05-07T06:38:53;17.20;99.90
48728;DHT22;34527;45.618;5.130;2023-05-07T06:41:19;17.40;99.90
48728;DHT22;34527;45.618;5.130;2023-05-07T06:43:46;17.60;99.90
48728;DHT22;34527;45.618;5.130;2023-05-07T06:46:11;17.70;99.90
48728;DHT22;34527;45.618;5.130;2023-05-07T06:48:37;17.60;99.90
48728;DHT22;34527;45.618;5.130;2023-05-07T06:51:03;17.60;99.90
48728;DHT22;34527;45.618;5.130;2023-05-07T06:53:28;17.80;99.90
48728;DHT22;34527;45.618;5.130;2023-05-07T06:55:56;17.90;99.90
48728;DHT22;34527;45.618;5.130;2023-05-07T06:58:21;18.10;99.90
48728;DHT22;34527;45.618;5.130;2023-05-07T07:00:47;18.20;99.90
48728;DHT22;34527;45.618;5.130;2023-05-07T07:03:13;18.30;99.90
48728;DHT22;34527;45.618;5.130;2023-05-07T07:05:40;18.30;99.90
48728;DHT22;34527;45.618;5.130;2023-05-07T07:08:06;18.30;99.90
48728;DHT22;34527;45.618;5.130;2023-05-07T07:10:31;18.30;99.90
48728;DHT22;34527;45.618;5.130;2023-05-07T07:12:57;18.30;99.90
48728;DHT22;34527;45.618;5.130;2023-05-07T07:15:23;18.40;99.90
48728;DHT22;34527;45.618;5.130;2023-05-07T07:17:50;18.50;99.90
48728;DHT22;34527;45.618;5.130;2023-05-07T07:20:16;18.60;99.90
48728;DHT22;34527;45.618;5.130;2023-05-07T07:22:42;18.60;99.90
48728;DHT22;34527;45.618;5.130;2023-05-07T07:25:08;18.70;99.90
48728;DHT22;34527;45.618;5.130;2023-05-07T07:27:33;18.60;99.90
48728;DHT22;34527;45.618;5.130;2023-05-07T07:29:59;18.40;99.90
48728;DHT22;34527;45.618;5.130;2023-05-07T07:32:25;18.40;99.90
48728;DHT22;34527;45.618;5.130;2023-05-07T07:34:51;18.30;99.90
48728;DHT22;34527;45.618;5.130;2023-05-07T07:37:16;18.30;99.90
48728;DHT22;34527;45.618;5.130;2023-05-07T07:39:42;18.30;99.90
48728;DHT22;34527;45.618;5.130;2023-05-07T07:42:07;18.40;99.90
48728;DHT22;34527;45.618;5.130;2023-05-07T07:44:33;18.50;99.90
48728;DHT22;34527;45.618;5.130;2023-05-07T07:46:59;18.40;99.90
48728;DHT22;34527;45.618;5.130;2023-05-07T07:49:24;18.30;99.90
48728;DHT22;34527;45.618;5.130;2023-05-07T07:51:50;18.30;99.90
48728;DHT22;34527;45.618;5.130;2023-05-07T07:54:16;18.30;99.90
48728;DHT22;34527;45.618;5.130;2023-05-07T07:56:42;18.20;99.90
48728;DHT22;34527;45.618;5.130;2023-05-07T07:59:07;18.30;99.90
48728;DHT22;34527;45.618;5.130;2023-05-07T08:01:33;18.20;99.90
48728;DHT22;34527;45.618;5.130;2023-05-07T08:03:59;18.20;99.90
48728;DHT22;34527;45.618;5.130;2023-05-07T08:06:24;18.30;99.90
48728;DHT22;34527;45.618;5.130;2023-05-07T08:08:53;18.30;99.90
48728;DHT22;34527;45.618;5.130;2023-05-07T08:11:18;18.30;99.90
48728;DHT22;34527;45.618;5.130;2023-05-07T08:13:45;18.30;99.90
48728;DHT22;34527;45.618;5.130;2023-05-07T08:16:11;18.30;99.90
48728;DHT22;34527;45.618;5.130;2023-05-07T08:18:37;18.20;99.90
48728;DHT22;34527;45.618;5.130;2023-05-07T08:21:03;18.30;99.90
48728;DHT22;34527;45.618;5.130;2023-05-07T08:23:28;18.30;99.90
48728;DHT22;34527;45.618;5.130;2023-05-07T08:25:54;18.20;99.90
48728;DHT22;34527;45.618;5.130;2023-05-07T08:28:20;18.30;99.90
48728;DHT22;34527;45.618;5.130;2023-05-07T08:30:46;18.20;99.90
48728;DHT22;34527;45.618;5.130;2023-05-07T08:33:12;18.20;99.90
48728;DHT22;34527;45.618;5.130;2023-05-07T08:35:38;18.10;99.90
48728;DHT22;34527;45.618;5.130;2023-05-07T08:38:04;18.10;99.90
48728;DHT22;34527;45.618;5.130;2023-05-07T08:40:34;18.00;99.90
48728;DHT22;34527;45.618;5.130;2023-05-07T08:43:02;17.90;99.90
48728;DHT22;34527;45.618;5.130;2023-05-07T08:45:28;17.90;99.90
48728;DHT22;34527;45.618;5.130;2023-05-07T08:47:59;17.80;99.90
48728;DHT22;34527;45.618;5.130;2023-05-07T08:50:25;17.70;99.90
48728;DHT22;34527;45.618;5.130;2023-05-07T08:52:51;17.60;99.90
48728;DHT22;34527;45.618;5.130;2023-05-07T08:55:17;17.60;99.90
48728;DHT22;34527;45.618;5.130;2023-05-07T08:57:42;17.40;99.90
48728;DHT22;34527;45.618;5.130;2023-05-07T09:00:08;17.40;99.90
48728;DHT22;34527;45.618;5.130;2023-05-07T09:02:36;17.30;99.90
48728;DHT22;34527;45.618;5.130;2023-05-07T09:05:02;17.20;99.90
48728;DHT22;34527;45.618;5.130;2023-05-07T09:07:28;17.20;99.90
48728;DHT22;34527;45.618;5.130;2023-05-07T09:09:55;17.20;99.90
48728;DHT22;34527;45.618;5.130;2023-05-07T09:12:22;17.10;99.90
48728;DHT22;34527;45.618;5.130;2023-05-07T09:14:48;17.10;99.90
48728;DHT22;34527;45.618;5.130;2023-05-07T09:17:15;17.00;99.90
48728;DHT22;34527;45.618;5.130;2023-05-07T09:19:42;16.90;99.90
48728;DHT22;34527;45.618;5.130;2023-05-07T09:22:08;16.90;99.90
48728;DHT22;34527;45.618;5.130;2023-05-07T09:24:34;16.80;99.90
48728;DHT22;34527;45.618;5.130;2023-05-07T09:27:02;16.80;99.90
48728;DHT22;34527;45.618;5.130;2023-05-07T09:29:28;16.70;99.90
48728;DHT22;34527;45.618;5.130;2023-05-07T09:31:55;16.70;99.90
48728;DHT22;34527;45.618;5.130;2023-05-07T09:34:21;16.70;99.90
48728;DHT22;34527;45.618;5.130;2023-05-07T09:36:47;16.60;99.90
48728;DHT22;34527;45.618;5.130;2023-05-07T09:39:13;16.50;99.90
48728;DHT22;34527;45.618;5.130;2023-05-07T09:41:46;16.50;99.90
48728;DHT22;34527;45.618;5.130;2023-05-07T09:44:13;16.40;99.90
48728;DHT22;34527;45.618;5.130;2023-05-07T09:46:42;16.30;99.90
48728;DHT22;34527;45.618;5.130;2023-05-07T09:49:14;16.30;99.90
48728;DHT22;34527;45.618;5.130;2023-05-07T09:51:48;16.20;99.90
48728;DHT22;34527;45.618;5.130;2023-05-07T09:54:15;16.10;99.90
48728;DHT22;34527;45.618;5.130;2023-05-07T09:56:40;16.10;99.90
48728;DHT22;34527;45.618;5.130;2023-05-07T09:59:08;16.10;99.90
48728;DHT22;34527;45.618;5.130;2023-05-07T10:01:36;16.10;99.90
48728;DHT22;34527;45.618;5.130;2023-05-07T10:04:03;16.10;99.90
48728;DHT22;34527;45.618;5.130;2023-05-07T10:06:30;16.00;99.90
48728;DHT22;34527;45.618;5.130;2023-05-07T10:08:56;16.00;99.90
48728;DHT22;34527;45.618;5.130;2023-05-07T10:11:22;16.00;99.90
48728;DHT22;34527;45.618;5.130;2023-05-07T10:13:48;16.00;99.90
48728;DHT22;34527;45.618;5.130;2023-05-07T10:16:14;16.00;99.90
48728;DHT22;34527;45.618;5.130;2023-05-07T10:18:40;16.00;99.90
48728;DHT22;34527;45.618;5.130;2023-05-07T10:23:32;16.00;99.90
48728;DHT22;34527;45.618;5.130;2023-05-07T10:26:01;16.10;99.90
48728;DHT22;34527;45.618;5.130;2023-05-07T10:28:29;16.10;99.90
48728;DHT22;34527;45.618;5.130;2023-05-07T10:33:31;16.20;99.90
48728;DHT22;34527;45.618;5.130;2023-05-07T10:36:00;16.20;99.90
48728;DHT22;34527;45.618;5.130;2023-05-07T10:38:27;16.30;99.90
48728;DHT22;34527;45.618;5.130;2023-05-07T10:40:53;16.30;99.90
48728;DHT22;34527;45.618;5.130;2023-05-07T10:43:19;16.40;99.90
48728;DHT22;34527;45.618;5.130;2023-05-07T10:46:17;16.40;99.90
48728;DHT22;34527;45.618;5.130;2023-05-07T10:49:12;16.40;99.90
48728;DHT22;34527;45.618;5.130;2023-05-07T10:51:38;16.40;99.90
48728;DHT22;34527;45.618;5.130;2023-05-07T10:56:38;16.50;99.90
48728;DHT22;34527;45.618;5.130;2023-05-07T10:59:33;16.50;99.90
48728;DHT22;34527;45.618;5.130;2023-05-07T11:02:00;16.40;99.90
48728;DHT22;34527;45.618;5.130;2023-05-07T11:04:29;16.40;99.90
48728;DHT22;34527;45.618;5.130;2023-05-07T11:15:07;16.40;99.90
48728;DHT22;34527;45.618;5.130;2023-05-07T11:17:34;16.40;99.90
48728;DHT22;34527;45.618;5.130;2023-05-07T11:20:01;16.50;99.90
48728;DHT22;34527;45.618;5.130;2023-05-07T11:24:56;16.60;99.90
48728;DHT22;34527;45.618;5.130;2023-05-07T11:27:29;16.50;99.90
48728;DHT22;34527;45.618;5.130;2023-05-07T11:29:54;16.60;99.90
48728;DHT22;34527;45.618;5.130;2023-05-07T11:34:53;16.80;99.90
48728;DHT22;34527;45.618;5.130;2023-05-07T11:37:19;16.60;99.90
48728;DHT22;34527;45.618;5.130;2023-05-07T11:39:46;16.60;99.90
48728;DHT22;34527;45.618;5.130;2023-05-07T11:42:28;16.60;99.90
48728;DHT22;34527;45.618;5.130;2023-05-07T11:44:54;16.50;99.90
48728;DHT22;34527;45.618;5.130;2023-05-07T11:47:20;16.70;99.90
48728;DHT22;34527;45.618;5.130;2023-05-07T11:49:50;16.60;99.90
48728;DHT22;34527;45.618;5.130;2023-05-07T11:52:17;16.70;99.90
48728;DHT22;34527;45.618;5.130;2023-05-07T11:54:55;16.60;99.90
48728;DHT22;34527;45.618;5.130;2023-05-07T11:57:22;16.70;99.90
48728;DHT22;34527;45.618;5.130;2023-05-07T11:59:56;16.70;99.90
48728;DHT22;34527;45.618;5.130;2023-05-07T12:02:23;16.70;99.90
48728;DHT22;34527;45.618;5.130;2023-05-07T12:04:50;16.70;99.90
48728;DHT22;34527;45.618;5.130;2023-05-07T12:07:16;16.80;99.90
48728;DHT22;34527;45.618;5.130;2023-05-07T12:09:44;16.70;99.90
48728;DHT22;34527;45.618;5.130;2023-05-07T12:12:10;16.60;99.90
48728;DHT22;34527;45.618;5.130;2023-05-07T12:14:40;16.60;99.90
48728;DHT22;34527;45.618;5.130;2023-05-07T12:17:07;16.50;99.90
48728;DHT22;34527;45.618;5.130;2023-05-07T12:19:34;16.40;99.90
48728;DHT22;34527;45.618;5.130;2023-05-07T12:22:02;16.40;99.90
48728;DHT22;34527;45.618;5.130;2023-05-07T12:24:28;16.50;99.90
48728;DHT22;34527;45.618;5.130;2023-05-07T12:26:53;16.50;99.90
48728;DHT22;34527;45.618;5.130;2023-05-07T12:29:22;16.60;99.90
48728;DHT22;34527;45.618;5.130;2023-05-07T12:31:49;16.50;99.90
48728;DHT22;34527;45.618;5.130;2023-05-07T12:34:15;16.60;99.90
48728;DHT22;34527;45.618;5.130;2023-05-07T12:36:41;16.50;99.90
48728;DHT22;34527;45.618;5.130;2023-05-07T12:39:08;16.60;99.90
48728;DHT22;34527;45.618;5.130;2023-05-07T12:41:53;16.60;99.90
48728;DHT22;34527;45.618;5.130;2023-05-07T12:44:22;16.70;99.90
48728;DHT22;34527;45.618;5.130;2023-05-07T12:46:48;16.70;99.90
48728;DHT22;34527;45.618;5.130;2023-05-07T12:49:13;16.70;99.90
48728;DHT22;34527;45.618;5.130;2023-05-07T12:51:39;16.80;99.90
48728;DHT22;34527;45.618;5.130;2023-05-07T12:54:04;16.70;99.90
48728;DHT22;34527;45.618;5.130;2023-05-07T12:56:36;16.70;99.90
48728;DHT22;34527;45.618;5.130;2023-05-07T12:59:02;16.80;99.90
48728;DHT22;34527;45.618;5.130;2023-05-07T13:01:34;16.80;99.90
48728;DHT22;34527;45.618;5.130;2023-05-07T13:04:03;16.80;99.90
48728;DHT22;34527;45.618;5.130;2023-05-07T13:06:30;16.70;99.90
48728;DHT22;34527;45.618;5.130;2023-05-07T13:08:56;16.60;99.90
48728;DHT22;34527;45.618;5.130;2023-05-07T13:11:22;16.70;99.90
48728;DHT22;34527;45.618;5.130;2023-05-07T13:13:48;16.70;99.90
48728;DHT22;34527;45.618;5.130;2023-05-07T13:16:13;16.70;99.90
48728;DHT22;34527;45.618;5.130;2023-05-07T13:18:40;16.70;99.90
48728;DHT22;34527;45.618;5.130;2023-05-07T13:21:06;16.70;99.90
48728;DHT22;34527;45.618;5.130;2023-05-07T13:23:31;16.70;99.90
48728;DHT22;34527;45.618;5.130;2023-05-07T13:25:57;16.70;99.90
48728;DHT22;34527;45.618;5.130;2023-05-07T13:28:24;16.60;99.90
48728;DHT22;34527;45.618;5.130;2023-05-07T13:30:50;16.70;99.90
48728;DHT22;34527;45.618;5.130;2023-05-07T13:33:17;16.60;99.90
48728;DHT22;34527;45.618;5.130;2023-05-07T13:35:42;16.60;99.90
48728;DHT22;34527;45.618;5.130;2023-05-07T13:38:08;16.70;99.90
48728;DHT22;34527;45.618;5.130;2023-05-07T13:40:34;16.60;99.90
48728;DHT22;34527;45.618;5.130;2023-05-07T13:43:00;16.60;99.90
48728;DHT22;34527;45.618;5.130;2023-05-07T13:45:28;16.60;99.90
48728;DHT22;34527;45.618;5.130;2023-05-07T13:47:55;16.60;99.90
48728;DHT22;34527;45.618;5.130;2023-05-07T13:50:21;16.60;99.90
48728;DHT22;34527;45.618;5.130;2023-05-07T13:52:47;16.70;99.90
48728;DHT22;34527;45.618;5.130;2023-05-07T13:55:20;16.90;99.90
48728;DHT22;34527;45.618;5.130;2023-05-07T13:57:46;16.90;99.90
48728;DHT22;34527;45.618;5.130;2023-05-07T14:00:13;16.90;99.90
48728;DHT22;34527;45.618;5.130;2023-05-07T14:02:38;17.00;99.90
48728;DHT22;34527;45.618;5.130;2023-05-07T14:05:04;17.00;99.90
48728;DHT22;34527;45.618;5.130;2023-05-07T14:07:30;17.10;99.90
48728;DHT22;34527;45.618;5.130;2023-05-07T14:09:56;17.20;99.90
48728;DHT22;34527;45.618;5.130;2023-05-07T14:12:22;17.20;99.90
48728;DHT22;34527;45.618;5.130;2023-05-07T14:14:48;17.10;99.90
48728;DHT22;34527;45.618;5.130;2023-05-07T14:17:17;17.20;99.90
48728;DHT22;34527;45.618;5.130;2023-05-07T14:19:43;17.10;99.90
48728;DHT22;34527;45.618;5.130;2023-05-07T14:22:09;17.10;99.90
48728;DHT22;34527;45.618;5.130;2023-05-07T14:24:36;17.00;99.90
48728;DHT22;34527;45.618;5.130;2023-05-07T14:27:01;17.10;99.90
48728;DHT22;34527;45.618;5.130;2023-05-07T14:29:28;17.10;99.90
48728;DHT22;34527;45.618;5.130;2023-05-07T14:31:53;17.10;99.90
48728;DHT22;34527;45.618;5.130;2023-05-07T14:34:19;17.10;99.90
48728;DHT22;34527;45.618;5.130;2023-05-07T14:36:45;17.10;99.90
48728;DHT22;34527;45.618;5.130;2023-05-07T14:39:10;17.10;99.90
48728;DHT22;34527;45.618;5.130;2023-05-07T14:41:36;16.90;99.90
48728;DHT22;34527;45.618;5.130;2023-05-07T14:44:01;16.90;99.90
48728;DHT22;34527;45.618;5.130;2023-05-07T14:46:29;16.90;99.90
48728;DHT22;34527;45.618;5.130;2023-05-07T14:48:54;16.80;99.90
48728;DHT22;34527;45.618;5.130;2023-05-07T14:51:20;16.70;99.90
48728;DHT22;34527;45.618;5.130;2023-05-07T14:53:46;16.60;99.90
48728;DHT22;34527;45.618;5.130;2023-05-07T14:56:12;16.50;99.90
48728;DHT22;34527;45.618;5.130;2023-05-07T14:58:37;16.40;99.90
48728;DHT22;34527;45.618;5.130;2023-05-07T15:01:03;16.50;99.90
48728;DHT22;34527;45.618;5.130;2023-05-07T15:03:29;16.50;99.90
48728;DHT22;34527;45.618;5.130;2023-05-07T15:05:55;16.60;99.90
48728;DHT22;34527;45.618;5.130;2023-05-07T15:08:21;16.60;99.90
48728;DHT22;34527;45.618;5.130;2023-05-07T15:10:46;16.60;99.90
48728;DHT22;34527;45.618;5.130;2023-05-07T15:13:12;16.60;99.90
48728;DHT22;34527;45.618;5.130;2023-05-07T15:15:38;16.60;99.90
48728;DHT22;34527;45.618;5.130;2023-05-07T15:18:04;16.70;99.90
48728;DHT22;34527;45.618;5.130;2023-05-07T15:20:30;16.70;99.90
48728;DHT22;34527;45.618;5.130;2023-05-07T15:22:56;16.70;99.90
48728;DHT22;34527;45.618;5.130;2023-05-07T15:25:22;16.70;99.90
48728;DHT22;34527;45.618;5.130;2023-05-07T15:27:48;16.70;99.90
48728;DHT22;34527;45.618;5.130;2023-05-07T15:30:14;16.70;99.90
48728;DHT22;34527;45.618;5.130;2023-05-07T15:32:41;16.70;99.90
48728;DHT22;34527;45.618;5.130;2023-05-07T15:35:07;16.60;99.90
48728;DHT22;34527;45.618;5.130;2023-05-07T15:37:33;16.70;99.90
48728;DHT22;34527;45.618;5.130;2023-05-07T15:39:59;16.60;99.90
48728;DHT22;34527;45.618;5.130;2023-05-07T15:42:24;16.60;99.90
48728;DHT22;34527;45.618;5.130;2023-05-07T15:44:50;16.60;99.90
48728;DHT22;34527;45.618;5.130;2023-05-07T15:47:16;16.50;99.90